sensor_id;sensor_type;location;lat;lon;timestamp;temperature;humidity
7648;DHT22;3866;48.020;11.720;2023-12-20T00:01:16;5.50;99.90
7648;DHT22;3866;48.020;11.720;2023-12-20T00:03:43;5.50;99.90
7648;DHT22;3866;48.020;11.720;2023-12-20T00:06:10;5.40;99.90
7648;DHT22;3866;48.020;11.720;2023-12-20T00:08:37;5.30;99.90
7648;DHT22;3866;48.020;11.720;2023-12-20T00:11:04;5.30;99.90
7648;DHT22;3866;48.020;11.720;2023-12-20T00:13:31;5.20;99.90
7648;DHT22;3866;48.020;11.720;2023-12-20T00:15:59;5.20;99.90
7648;DHT22;3866;48.020;11.720;2023-12-20T00:18:26;5.30;99.90
7648;DHT22;3866;48.020;11.720;2023-12-20T00:20:53;5.50;99.90
7648;DHT22;3866;48.020;11.720;2023-12-20T00:23:20;5.50;99.90
7648;DHT22;3866;48.020;11.720;2023-12-20T00:25:48;5.60;99.90
7648;DHT22;3866;48.020;11.720;2023-12-20T00:28:15;5.70;99.90
7648;DHT22;3866;48.020;11.720;2023-12-20T00:30:42;5.70;99.90
7648;DHT22;3866;48.020;11.720;2023-12-20T00:33:11;5.70;99.90
7648;DHT22;3866;48.020;11.720;2023-12-20T00:35:38;5.70;99.90
7648;DHT22;3866;48.020;11.720;2023-12-20T00:38:05;5.70;99.90
7648;DHT22;3866;48.020;11.720;2023-12-20T00:40:34;5.70;99.90
7648;DHT22;3866;48.020;11.720;2023-12-20T00:43:01;5.70;99.90
7648;DHT22;3866;48.020;11.720;2023-12-20T00:45:28;5.70;99.90
7648;DHT22;3866;48.020;11.720;2023-12-20T00:47:55;5.70;99.90
7648;DHT22;3866;48.020;11.720;2023-12-20T00:50:23;5.70;99.90
7648;DHT22;3866;48.020;11.720;2023-12-20T00:52:50;5.70;99.90
7648;DHT22;3866;48.020;11.720;2023-12-20T00:55:17;5.70;99.90
7648;DHT22;3866;48.020;11.720;2023-12-20T00:57:44;5.60;99.90
7648;DHT22;3866;48.020;11.720;2023-12-20T01:00:11;5.60;99.90
7648;DHT22;3866;48.020;11.720;2023-12-20T01:02:38;5.60;99.90
7648;DHT22;3866;48.020;11.720;2023-12-20T01:05:06;5.70;99.90
7648;DHT22;3866;48.020;11.720;2023-12-20T01:07:36;5.70;99.90
7648;DHT22;3866;48.020;11.720;2023-12-20T01:10:03;5.70;99.90
7648;DHT22;3866;48.020;11.720;2023-12-20T01:12:30;5.80;99.90
7648;DHT22;3866;48.020;11.720;2023-12-20T01:14:57;5.90;99.90
7648;DHT22;3866;48.020;11.720;2023-12-20T01:17:24;6.00;99.90
7648;DHT22;3866;48.020;11.720;2023-12-20T01:19:51;5.90;99.90
7648;DHT22;3866;48.020;11.720;2023-12-20T01:22:18;5.80;99.90
7648;DHT22;3866;48.020;11.720;2023-12-20T01:24:46;5.80;99.90
7648;DHT22;3866;48.020;11.720;2023-12-20T01:27:13;5.80;99.90
7648;DHT22;3866;48.020;11.720;2023-12-20T01:29:40;5.80;99.90
7648;DHT22;3866;48.020;11.720;2023-12-20T01:32:07;5.80;99.90
7648;DHT22;3866;48.020;11.720;2023-12-20T01:34:34;5.80;99.90
7648;DHT22;3866;48.020;11.720;2023-12-20T01:37:04;5.90;99.90
7648;DHT22;3866;48.020;11.720;2023-12-20T01:39:31;5.90;99.90
7648;DHT22;3866;48.020;11.720;2023-12-20T01:41:59;5.90;99.90
7648;DHT22;3866;48.020;11.720;2023-12-20T01:44:26;5.90;99.90
7648;DHT22;3866;48.020;11.720;2023-12-20T01:46:53;5.80;99.90
7648;DHT22;3866;48.020;11.720;2023-12-20T01:49:21;5.70;99.90
7648;DHT22;3866;48.020;11.720;2023-12-20T01:51:48;5.60;99.90
7648;DHT22;3866;48.020;11.720;2023-12-20T01:54:16;5.70;99.90
7648;DHT22;3866;48.020;11.720;2023-12-20T01:56:43;5.60;99.90
7648;DHT22;3866;48.020;11.720;2023-12-20T01:59:11;5.60;99.90
7648;DHT22;3866;48.020;11.720;2023-12-20T02:01:39;5.60;99.90
7648;DHT22;3866;48.020;11.720;2023-12-20T02:04:06;5.60;99.90
7648;DHT22;3866;48.020;11.720;2023-12-20T02:06:34;5.50;99.90
7648;DHT22;3866;48.020;11.720;2023-12-20T02:09:01;5.50;99.90
7648;DHT22;3866;48.020;11.720;2023-12-20T02:11:28;5.50;99.90
7648;DHT22;3866;48.020;11.720;2023-12-20T02:13:55;5.50;99.90
7648;DHT22;3866;48.020;11.720;2023-12-20T02:16:23;5.50;99.90
7648;DHT22;3866;48.020;11.720;2023-12-20T02:18:52;5.40;99.90
7648;DHT22;3866;48.020;11.720;2023-12-20T02:21:25;5.40;99.90
7648;DHT22;3866;48.020;11.720;2023-12-20T02:23:52;5.40;99.90
7648;DHT22;3866;48.020;11.720;2023-12-20T02:26:18;5.40;99.90
7648;DHT22;3866;48.020;11.720;2023-12-20T02:28:45;5.40;99.90
7648;DHT22;3866;48.020;11.720;2023-12-20T02:31:12;5.40;99.90
7648;DHT22;3866;48.020;11.720;2023-12-20T02:33:38;5.40;99.90
7648;DHT22;3866;48.020;11.720;2023-12-20T02:36:07;5.30;99.90
7648;DHT22;3866;48.020;11.720;2023-12-20T02:38:35;5.30;99.90
7648;DHT22;3866;48.020;11.720;2023-12-20T02:41:03;5.30;99.90
7648;DHT22;3866;48.020;11.720;2023-12-20T02:43:29;5.30;99.90
7648;DHT22;3866;48.020;11.720;2023-12-20T02:45:56;5.30;99.90
7648;DHT22;3866;48.020;11.720;2023-12-20T02:48:23;5.30;99.90
7648;DHT22;3866;48.020;11.720;2023-12-20T02:50:51;5.30;99.90
7648;DHT22;3866;48.020;11.720;2023-12-20T02:53:18;5.40;99.90
7648;DHT22;3866;48.020;11.720;2023-12-20T02:55:46;5.40;99.90
7648;DHT22;3866;48.020;11.720;2023-12-20T02:58:13;5.50;99.90
7648;DHT22;3866;48.020;11.720;2023-12-20T03:00:40;5.50;99.90
7648;DHT22;3866;48.020;11.720;2023-12-20T03:03:07;5.50;99.90
7648;DHT22;3866;48.020;11.720;2023-12-20T03:05:33;5.50;99.90
7648;DHT22;3866;48.020;11.720;2023-12-20T03:08:00;5.60;99.90
7648;DHT22;3866;48.020;11.720;2023-12-20T03:10:27;5.70;99.90
7648;DHT22;3866;48.020;11.720;2023-12-20T03:12:56;5.70;99.90
7648;DHT22;3866;48.020;11.720;2023-12-20T03:15:23;5.70;99.90
7648;DHT22;3866;48.020;11.720;2023-12-20T03:17:49;5.70;99.90
7648;DHT22;3866;48.020;11.720;2023-12-20T03:20:16;5.70;99.90
7648;DHT22;3866;48.020;11.720;2023-12-20T03:22:43;5.70;99.90
7648;DHT22;3866;48.020;11.720;2023-12-20T03:25:10;5.70;99.90
7648;DHT22;3866;48.020;11.720;2023-12-20T03:27:37;5.70;99.90
7648;DHT22;3866;48.020;11.720;2023-12-20T03:30:07;5.70;99.90
7648;DHT22;3866;48.020;11.720;2023-12-20T03:32:34;5.80;99.90
7648;DHT22;3866;48.020;11.720;2023-12-20T03:35:01;5.80;99.90
7648;DHT22;3866;48.020;11.720;2023-12-20T03:37:28;5.80;99.90
7648;DHT22;3866;48.020;11.720;2023-12-20T03:39:55;5.80;99.90
7648;DHT22;3866;48.020;11.720;2023-12-20T03:42:22;5.80;99.90
7648;DHT22;3866;48.020;11.720;2023-12-20T03:44:49;5.90;99.90
7648;DHT22;3866;48.020;11.720;2023-12-20T03:47:17;5.90;99.90
7648;DHT22;3866;48.020;11.720;2023-12-20T03:49:44;5.90;99.90
7648;DHT22;3866;48.020;11.720;2023-12-20T03:52:11;5.90;99.90
7648;DHT22;3866;48.020;11.720;2023-12-20T03:54:38;6.00;99.90
7648;DHT22;3866;48.020;11.720;2023-12-20T03:57:05;6.00;99.90
7648;DHT22;3866;48.020;11.720;2023-12-20T03:59:35;5.90;99.90
7648;DHT22;3866;48.020;11.720;2023-12-20T04:02:03;6.00;99.90
7648;DHT22;3866;48.020;11.720;2023-12-20T04:04:31;5.90;99.90
7648;DHT22;3866;48.020;11.720;2023-12-20T04:06:58;5.90;99.90
7648;DHT22;3866;48.020;11.720;2023-12-20T04:09:25;5.90;99.90
7648;DHT22;3866;48.020;11.720;2023-12-20T04:11:52;5.90;99.90
7648;DHT22;3866;48.020;11.720;2023-12-20T04:14:19;6.00;99.90
7648;DHT22;3866;48.020;11.720;2023-12-20T04:16:46;6.00;99.90
7648;DHT22;3866;48.020;11.720;2023-12-20T04:19:13;6.10;99.90
7648;DHT22;3866;48.020;11.720;2023-12-20T04:21:41;6.10;99.90
7648;DHT22;3866;48.020;11.720;2023-12-20T04:24:08;6.10;99.90
7648;DHT22;3866;48.020;11.720;2023-12-20T04:26:35;6.10;99.90
7648;DHT22;3866;48.020;11.720;2023-12-20T04:29:02;6.10;99.90
7648;DHT22;3866;48.020;11.720;2023-12-20T04:31:29;6.10;99.90
7648;DHT22;3866;48.020;11.720;2023-12-20T04:33:55;6.10;99.90
7648;DHT22;3866;48.020;11.720;2023-12-20T04:36:22;6.10;99.90
7648;DHT22;3866;48.020;11.720;2023-12-20T04:38:52;6.00;99.90
7648;DHT22;3866;48.020;11.720;2023-12-20T04:41:19;6.00;99.90
7648;DHT22;3866;48.020;11.720;2023-12-20T04:43:46;6.00;99.90
7648;DHT22;3866;48.020;11.720;2023-12-20T04:46:13;6.10;99.90
7648;DHT22;3866;48.020;11.720;2023-12-20T04:48:40;6.10;99.90
7648;DHT22;3866;48.020;11.720;2023-12-20T04:51:06;6.10;99.90
7648;DHT22;3866;48.020;11.720;2023-12-20T04:53:33;6.10;99.90
7648;DHT22;3866;48.020;11.720;2023-12-20T04:56:02;6.10;99.90
7648;DHT22;3866;48.020;11.720;2023-12-20T04:58:29;6.30;99.90
7648;DHT22;3866;48.020;11.720;2023-12-20T05:00:56;6.20;99.90
7648;DHT22;3866;48.020;11.720;2023-12-20T05:03:23;6.20;99.90
7648;DHT22;3866;48.020;11.720;2023-12-20T05:05:49;6.20;99.90
7648;DHT22;3866;48.020;11.720;2023-12-20T05:08:16;6.20;99.90
7648;DHT22;3866;48.020;11.720;2023-12-20T05:10:43;6.30;99.90
7648;DHT22;3866;48.020;11.720;2023-12-20T05:13:11;6.30;99.90
7648;DHT22;3866;48.020;11.720;2023-12-20T05:15:38;6.30;99.90
7648;DHT22;3866;48.020;11.720;2023-12-20T05:18:06;6.30;99.90
7648;DHT22;3866;48.020;11.720;2023-12-20T05:20:32;6.20;99.90
7648;DHT22;3866;48.020;11.720;2023-12-20T05:22:59;6.20;99.90
7648;DHT22;3866;48.020;11.720;2023-12-20T05:25:26;6.10;99.90
7648;DHT22;3866;48.020;11.720;2023-12-20T05:27:53;6.10;99.90
7648;DHT22;3866;48.020;11.720;2023-12-20T05:30:23;6.00;99.90
7648;DHT22;3866;48.020;11.720;2023-12-20T05:32:49;6.00;99.90
7648;DHT22;3866;48.020;11.720;2023-12-20T05:35:16;6.00;99.90
7648;DHT22;3866;48.020;11.720;2023-12-20T05:37:44;5.90;99.90
7648;DHT22;3866;48.020;11.720;2023-12-20T05:40:11;5.90;99.90
7648;DHT22;3866;48.020;11.720;2023-12-20T05:42:38;5.90;99.90
7648;DHT22;3866;48.020;11.720;2023-12-20T05:45:06;5.90;99.90
7648;DHT22;3866;48.020;11.720;2023-12-20T05:47:34;5.90;99.90
7648;DHT22;3866;48.020;11.720;2023-12-20T05:50:04;5.80;99.90
7648;DHT22;3866;48.020;11.720;2023-12-20T05:52:31;5.80;99.90
7648;DHT22;3866;48.020;11.720;2023-12-20T05:54:58;5.70;99.90
7648;DHT22;3866;48.020;11.720;2023-12-20T05:57:27;5.70;99.90
7648;DHT22;3866;48.020;11.720;2023-12-20T05:59:53;5.60;99.90
7648;DHT22;3866;48.020;11.720;2023-12-20T06:02:20;5.60;99.90
7648;DHT22;3866;48.020;11.720;2023-12-20T06:04:48;5.40;99.90
7648;DHT22;3866;48.020;11.720;2023-12-20T06:07:15;5.40;99.90
7648;DHT22;3866;48.020;11.720;2023-12-20T06:09:42;5.30;99.90
7648;DHT22;3866;48.020;11.720;2023-12-20T06:12:10;5.30;99.90
7648;DHT22;3866;48.020;11.720;2023-12-20T06:14:37;5.20;99.90
7648;DHT22;3866;48.020;11.720;2023-12-20T06:17:04;5.20;99.90
7648;DHT22;3866;48.020;11.720;2023-12-20T06:19:31;5.10;99.90
7648;DHT22;3866;48.020;11.720;2023-12-20T06:21:59;5.10;99.90
7648;DHT22;3866;48.020;11.720;2023-12-20T06:24:26;5.10;99.90
7648;DHT22;3866;48.020;11.720;2023-12-20T06:26:53;5.10;99.90
7648;DHT22;3866;48.020;11.720;2023-12-20T06:29:21;5.00;99.90
7648;DHT22;3866;48.020;11.720;2023-12-20T06:31:47;5.00;99.90
7648;DHT22;3866;48.020;11.720;2023-12-20T06:34:14;5.00;99.90
7648;DHT22;3866;48.020;11.720;2023-12-20T06:36:41;5.00;99.90
7648;DHT22;3866;48.020;11.720;2023-12-20T06:39:12;4.90;99.90
7648;DHT22;3866;48.020;11.720;2023-12-20T06:41:42;4.80;99.90
7648;DHT22;3866;48.020;11.720;2023-12-20T06:44:09;4.80;99.90
7648;DHT22;3866;48.020;11.720;2023-12-20T06:46:36;4.80;99.90
7648;DHT22;3866;48.020;11.720;2023-12-20T06:49:03;4.80;99.90
7648;DHT22;3866;48.020;11.720;2023-12-20T06:51:30;4.80;99.90
7648;DHT22;3866;48.020;11.720;2023-12-20T06:53:57;4.70;99.90
7648;DHT22;3866;48.020;11.720;2023-12-20T06:56:26;4.60;99.90
7648;DHT22;3866;48.020;11.720;2023-12-20T06:58:53;4.60;99.90
7648;DHT22;3866;48.020;11.720;2023-12-20T07:01:20;4.60;99.90
7648;DHT22;3866;48.020;11.720;2023-12-20T07:03:48;4.60;99.90
7648;DHT22;3866;48.020;11.720;2023-12-20T07:06:15;4.50;99.90
7648;DHT22;3866;48.020;11.720;2023-12-20T07:08:42;4.50;99.90
7648;DHT22;3866;48.020;11.720;2023-12-20T07:11:09;4.50;99.90
7648;DHT22;3866;48.020;11.720;2023-12-20T07:13:37;4.40;99.90
7648;DHT22;3866;48.020;11.720;2023-12-20T07:16:05;4.40;99.90
7648;DHT22;3866;48.020;11.720;2023-12-20T07:18:32;4.40;99.90
7648;DHT22;3866;48.020;11.720;2023-12-20T07:20:58;4.40;99.90
7648;DHT22;3866;48.020;11.720;2023-12-20T07:23:25;4.40;99.90
7648;DHT22;3866;48.020;11.720;2023-12-20T07:25:52;4.30;99.90
7648;DHT22;3866;48.020;11.720;2023-12-20T07:28:19;4.40;99.90
7648;DHT22;3866;48.020;11.720;2023-12-20T07:30:47;4.30;99.90
7648;DHT22;3866;48.020;11.720;2023-12-20T07:33:14;4.30;99.90
7648;DHT22;3866;48.020;11.720;2023-12-20T07:35:41;4.30;99.90
7648;DHT22;3866;48.020;11.720;2023-12-20T07:38:10;4.20;99.90
7648;DHT22;3866;48.020;11.720;2023-12-20T07:40:38;4.20;99.90
7648;DHT22;3866;48.020;11.720;2023-12-20T07:43:05;4.30;99.90
7648;DHT22;3866;48.020;11.720;2023-12-20T07:45:32;4.30;99.90
7648;DHT22;3866;48.020;11.720;2023-12-20T07:48:00;4.30;99.90
7648;DHT22;3866;48.020;11.720;2023-12-20T07:50:27;4.30;99.90
7648;DHT22;3866;48.020;11.720;2023-12-20T07:52:54;4.30;99.90
7648;DHT22;3866;48.020;11.720;2023-12-20T07:55:21;4.30;99.90
7648;DHT22;3866;48.020;11.720;2023-12-20T07:57:48;4.30;99.90
7648;DHT22;3866;48.020;11.720;2023-12-20T08:00:16;4.30;99.90
7648;DHT22;3866;48.020;11.720;2023-12-20T08:02:43;4.30;99.90
7648;DHT22;3866;48.020;11.720;2023-12-20T08:05:11;4.40;99.90
7648;DHT22;3866;48.020;11.720;2023-12-20T08:07:39;4.30;99.90
7648;DHT22;3866;48.020;11.720;2023-12-20T08:10:07;4.40;99.90
7648;DHT22;3866;48.020;11.720;2023-12-20T08:12:34;4.40;99.90
7648;DHT22;3866;48.020;11.720;2023-12-20T08:15:02;4.30;99.90
7648;DHT22;3866;48.020;11.720;2023-12-20T08:17:29;4.40;99.90
7648;DHT22;3866;48.020;11.720;2023-12-20T08:19:56;4.30;99.90
7648;DHT22;3866;48.020;11.720;2023-12-20T08:22:25;4.40;99.90
7648;DHT22;3866;48.020;11.720;2023-12-20T08:24:52;4.30;99.90
7648;DHT22;3866;48.020;11.720;2023-12-20T08:27:19;4.30;99.90
7648;DHT22;3866;48.020;11.720;2023-12-20T08:29:46;4.40;99.90
7648;DHT22;3866;48.020;11.720;2023-12-20T08:32:13;4.40;99.90
7648;DHT22;3866;48.020;11.720;2023-12-20T08:34:40;4.40;99.90
7648;DHT22;3866;48.020;11.720;2023-12-20T08:37:07;4.40;99.90
7648;DHT22;3866;48.020;11.720;2023-12-20T08:39:35;4.40;99.90
7648;DHT22;3866;48.020;11.720;2023-12-20T08:42:02;4.40;99.90
7648;DHT22;3866;48.020;11.720;2023-12-20T08:44:29;4.40;99.90
7648;DHT22;3866;48.020;11.720;2023-12-20T08:46:56;4.30;99.90
7648;DHT22;3866;48.020;11.720;2023-12-20T08:49:23;4.30;99.90
7648;DHT22;3866;48.020;11.720;2023-12-20T08:51:51;4.30;99.90
7648;DHT22;3866;48.020;11.720;2023-12-20T08:54:23;4.30;99.90
7648;DHT22;3866;48.020;11.720;2023-12-20T08:56:51;4.30;99.90
7648;DHT22;3866;48.020;11.720;2023-12-20T08:59:18;4.30;99.90
7648;DHT22;3866;48.020;11.720;2023-12-20T09:01:45;4.20;99.90
7648;DHT22;3866;48.020;11.720;2023-12-20T09:04:13;4.30;99.90
7648;DHT22;3866;48.020;11.720;2023-12-20T09:06:40;4.30;99.90
7648;DHT22;3866;48.020;11.720;2023-12-20T09:09:07;4.30;99.90
7648;DHT22;3866;48.020;11.720;2023-12-20T09:11:39;4.20;99.90
7648;DHT22;3866;48.020;11.720;2023-12-20T09:14:07;4.20;99.90
7648;DHT22;3866;48.020;11.720;2023-12-20T09:16:35;4.20;99.90
7648;DHT22;3866;48.020;11.720;2023-12-20T09:19:02;4.20;99.90
7648;DHT22;3866;48.020;11.720;2023-12-20T09:21:30;4.20;99.90
7648;DHT22;3866;48.020;11.720;2023-12-20T09:23:59;4.30;99.90
7648;DHT22;3866;48.020;11.720;2023-12-20T09:26:26;4.30;99.90
7648;DHT22;3866;48.020;11.720;2023-12-20T09:28:53;4.30;99.90
7648;DHT22;3866;48.020;11.720;2023-12-20T09:31:21;4.30;99.90
7648;DHT22;3866;48.020;11.720;2023-12-20T09:33:48;4.30;99.90
7648;DHT22;3866;48.020;11.720;2023-12-20T09:36:15;4.30;99.90
7648;DHT22;3866;48.020;11.720;2023-12-20T09:38:42;4.30;99.90
7648;DHT22;3866;48.020;11.720;2023-12-20T09:41:09;4.40;99.90
7648;DHT22;3866;48.020;11.720;2023-12-20T09:43:37;4.30;99.90
7648;DHT22;3866;48.020;11.720;2023-12-20T09:46:06;4.40;99.90
7648;DHT22;3866;48.020;11.720;2023-12-20T09:48:36;4.40;99.90
7648;DHT22;3866;48.020;11.720;2023-12-20T09:51:04;4.40;99.90
7648;DHT22;3866;48.020;11.720;2023-12-20T09:53:31;4.50;99.90
7648;DHT22;3866;48.020;11.720;2023-12-20T09:56:01;4.50;99.90
7648;DHT22;3866;48.020;11.720;2023-12-20T09:58:29;4.50;99.90
7648;DHT22;3866;48.020;11.720;2023-12-20T10:00:56;4.50;99.90
7648;DHT22;3866;48.020;11.720;2023-12-20T10:03:25;4.50;99.90
7648;DHT22;3866;48.020;11.720;2023-12-20T10:05:55;4.50;99.90
7648;DHT22;3866;48.020;11.720;2023-12-20T10:08:23;4.50;99.90
7648;DHT22;3866;48.020;11.720;2023-12-20T10:10:50;4.60;99.90
7648;DHT22;3866;48.020;11.720;2023-12-20T10:13:17;4.60;99.90
7648;DHT22;3866;48.020;11.720;2023-12-20T10:15:44;4.60;99.90
7648;DHT22;3866;48.020;11.720;2023-12-20T10:18:12;4.60;99.90
7648;DHT22;3866;48.020;11.720;2023-12-20T10:20:40;4.60;99.90
7648;DHT22;3866;48.020;11.720;2023-12-20T10:23:09;4.60;99.90
7648;DHT22;3866;48.020;11.720;2023-12-20T10:25:36;4.70;99.90
7648;DHT22;3866;48.020;11.720;2023-12-20T10:28:10;4.70;99.90
7648;DHT22;3866;48.020;11.720;2023-12-20T10:30:37;4.80;99.90
7648;DHT22;3866;48.020;11.720;2023-12-20T10:33:05;4.90;99.90
7648;DHT22;3866;48.020;11.720;2023-12-20T10:35:33;4.80;99.90
7648;DHT22;3866;48.020;11.720;2023-12-20T10:38:03;4.80;99.90
7648;DHT22;3866;48.020;11.720;2023-12-20T10:40:34;4.90;99.90
7648;DHT22;3866;48.020;11.720;2023-12-20T10:43:03;4.90;99.90
7648;DHT22;3866;48.020;11.720;2023-12-20T10:45:31;4.90;99.90
7648;DHT22;3866;48.020;11.720;2023-12-20T10:47:58;4.90;99.90
7648;DHT22;3866;48.020;11.720;2023-12-20T10:50:27;5.00;99.90
7648;DHT22;3866;48.020;11.720;2023-12-20T10:52:55;5.00;99.90
7648;DHT22;3866;48.020;11.720;2023-12-20T10:55:22;5.00;99.90
7648;DHT22;3866;48.020;11.720;2023-12-20T10:57:51;5.10;99.90
7648;DHT22;3866;48.020;11.720;2023-12-20T11:00:19;5.10;99.90
7648;DHT22;3866;48.020;11.720;2023-12-20T11:02:49;5.10;99.90
7648;DHT22;3866;48.020;11.720;2023-12-20T11:05:25;5.10;99.90
7648;DHT22;3866;48.020;11.720;2023-12-20T11:07:57;5.10;99.90
7648;DHT22;3866;48.020;11.720;2023-12-20T11:10:29;5.20;99.90
7648;DHT22;3866;48.020;11.720;2023-12-20T11:13:04;5.20;99.90
7648;DHT22;3866;48.020;11.720;2023-12-20T11:15:35;5.20;99.90
7648;DHT22;3866;48.020;11.720;2023-12-20T11:18:04;5.30;99.90
7648;DHT22;3866;48.020;11.720;2023-12-20T11:20:36;5.20;99.90
7648;DHT22;3866;48.020;11.720;2023-12-20T11:23:04;5.20;99.90
7648;DHT22;3866;48.020;11.720;2023-12-20T11:25:46;5.40;99.90
7648;DHT22;3866;48.020;11.720;2023-12-20T11:28:15;5.40;99.90
7648;DHT22;3866;48.020;11.720;2023-12-20T11:30:47;5.30;99.90
7648;DHT22;3866;48.020;11.720;2023-12-20T11:33:14;5.30;99.90
7648;DHT22;3866;48.020;11.720;2023-12-20T11:35:42;5.30;99.90
7648;DHT22;3866;48.020;11.720;2023-12-20T11:38:09;5.30;99.90
7648;DHT22;3866;48.020;11.720;2023-12-20T11:40:37;5.30;99.90
7648;DHT22;3866;48.020;11.720;2023-12-20T11:43:04;5.20;99.90
7648;DHT22;3866;48.020;11.720;2023-12-20T11:45:33;5.20;99.90
7648;DHT22;3866;48.020;11.720;2023-12-20T11:48:02;5.30;99.90
7648;DHT22;3866;48.020;11.720;2023-12-20T11:50:29;5.30;99.90
7648;DHT22;3866;48.020;11.720;2023-12-20T11:52:57;5.20;99.90
7648;DHT22;3866;48.020;11.720;2023-12-20T11:55:24;5.10;99.90
7648;DHT22;3866;48.020;11.720;2023-12-20T11:57:51;5.10;99.90
7648;DHT22;3866;48.020;11.720;2023-12-20T12:00:19;5.20;99.90
7648;DHT22;3866;48.020;11.720;2023-12-20T12:02:58;5.20;99.90
7648;DHT22;3866;48.020;11.720;2023-12-20T12:05:25;5.10;99.90
7648;DHT22;3866;48.020;11.720;2023-12-20T12:07:53;5.10;99.90
7648;DHT22;3866;48.020;11.720;2023-12-20T12:10:21;5.00;99.90
7648;DHT22;3866;48.020;11.720;2023-12-20T12:12:48;5.00;99.90
7648;DHT22;3866;48.020;11.720;2023-12-20T12:15:15;5.00;99.90
7648;DHT22;3866;48.020;11.720;2023-12-20T12:17:43;5.00;99.90
7648;DHT22;3866;48.020;11.720;2023-12-20T12:20:11;4.90;99.90
7648;DHT22;3866;48.020;11.720;2023-12-20T12:22:38;5.00;99.90
7648;DHT22;3866;48.020;11.720;2023-12-20T12:25:12;5.00;99.90
7648;DHT22;3866;48.020;11.720;2023-12-20T12:27:40;5.00;99.90
7648;DHT22;3866;48.020;11.720;2023-12-20T12:30:09;4.90;99.90
7648;DHT22;3866;48.020;11.720;2023-12-20T12:32:38;4.90;99.90
7648;DHT22;3866;48.020;11.720;2023-12-20T12:35:06;4.90;99.90
7648;DHT22;3866;48.020;11.720;2023-12-20T12:37:38;4.90;99.90
7648;DHT22;3866;48.020;11.720;2023-12-20T12:40:09;4.80;99.90
7648;DHT22;3866;48.020;11.720;2023-12-20T12:42:36;4.80;99.90
7648;DHT22;3866;48.020;11.720;2023-12-20T12:45:04;4.80;99.90
7648;DHT22;3866;48.020;11.720;2023-12-20T12:47:31;4.80;99.90
7648;DHT22;3866;48.020;11.720;2023-12-20T12:49:58;4.90;99.90
7648;DHT22;3866;48.020;11.720;2023-12-20T12:52:25;4.90;99.90
7648;DHT22;3866;48.020;11.720;2023-12-20T12:54:54;4.90;99.90
7648;DHT22;3866;48.020;11.720;2023-12-20T12:57:21;4.90;99.90
7648;DHT22;3866;48.020;11.720;2023-12-20T12:59:49;4.90;99.90
7648;DHT22;3866;48.020;11.720;2023-12-20T13:02:16;4.90;99.90
7648;DHT22;3866;48.020;11.720;2023-12-20T13:04:44;4.90;99.90
7648;DHT22;3866;48.020;11.720;2023-12-20T13:07:11;5.00;99.90
7648;DHT22;3866;48.020;11.720;2023-12-20T13:09:38;5.00;99.90
7648;DHT22;3866;48.020;11.720;2023-12-20T13:12:07;5.00;99.90
7648;DHT22;3866;48.020;11.720;2023-12-20T13:14:35;5.00;99.90
7648;DHT22;3866;48.020;11.720;2023-12-20T13:17:03;5.00;99.90
7648;DHT22;3866;48.020;11.720;2023-12-20T13:19:30;5.00;99.90
7648;DHT22;3866;48.020;11.720;2023-12-20T13:21:57;5.00;99.90
7648;DHT22;3866;48.020;11.720;2023-12-20T13:24:24;5.00;99.90
7648;DHT22;3866;48.020;11.720;2023-12-20T13:26:51;5.10;99.90
7648;DHT22;3866;48.020;11.720;2023-12-20T13:29:20;5.10;99.90
7648;DHT22;3866;48.020;11.720;2023-12-20T13:31:47;5.10;99.90
7648;DHT22;3866;48.020;11.720;2023-12-20T13:34:14;5.10;99.90
7648;DHT22;3866;48.020;11.720;2023-12-20T13:36:43;5.10;99.90
7648;DHT22;3866;48.020;11.720;2023-12-20T13:39:11;5.10;99.90
7648;DHT22;3866;48.020;11.720;2023-12-20T13:41:38;5.20;99.90
7648;DHT22;3866;48.020;11.720;2023-12-20T13:44:05;5.20;99.90
7648;DHT22;3866;48.020;11.720;2023-12-20T13:46:34;5.20;99.90
7648;DHT22;3866;48.020;11.720;2023-12-20T13:49:01;5.20;99.90
7648;DHT22;3866;48.020;11.720;2023-12-20T13:51:28;5.20;99.90
7648;DHT22;3866;48.020;11.720;2023-12-20T13:53:55;5.30;99.90
7648;DHT22;3866;48.020;11.720;2023-12-20T13:56:23;5.20;99.90
7648;DHT22;3866;48.020;11.720;2023-12-20T13:58:50;5.00;99.90
7648;DHT22;3866;48.020;11.720;2023-12-20T14:01:17;4.80;99.90
7648;DHT22;3866;48.020;11.720;2023-12-20T14:03:45;4.70;99.90
7648;DHT22;3866;48.020;11.720;2023-12-20T14:06:12;4.40;99.90
7648;DHT22;3866;48.020;11.720;2023-12-20T14:08:40;4.30;99.90
7648;DHT22;3866;48.020;11.720;2023-12-20T14:11:08;4.20;99.90
7648;DHT22;3866;48.020;11.720;2023-12-20T14:13:36;4.20;99.90
7648;DHT22;3866;48.020;11.720;2023-12-20T14:16:03;4.00;99.90
7648;DHT22;3866;48.020;11.720;2023-12-20T14:18:30;3.90;99.90
7648;DHT22;3866;48.020;11.720;2023-12-20T14:20:58;3.90;99.90
7648;DHT22;3866;48.020;11.720;2023-12-20T14:23:25;3.80;99.90
7648;DHT22;3866;48.020;11.720;2023-12-20T14:25:52;3.80;99.90
7648;DHT22;3866;48.020;11.720;2023-12-20T14:28:21;3.70;99.90
7648;DHT22;3866;48.020;11.720;2023-12-20T14:30:48;3.80;99.90
7648;DHT22;3866;48.020;11.720;2023-12-20T14:33:15;3.80;99.90
7648;DHT22;3866;48.020;11.720;2023-12-20T14:35:42;3.80;99.90
7648;DHT22;3866;48.020;11.720;2023-12-20T14:38:11;3.80;99.90
7648;DHT22;3866;48.020;11.720;2023-12-20T14:40:40;3.80;99.90
7648;DHT22;3866;48.020;11.720;2023-12-20T14:43:07;3.80;99.90
7648;DHT22;3866;48.020;11.720;2023-12-20T14:45:34;3.80;99.90
7648;DHT22;3866;48.020;11.720;2023-12-20T14:48:01;3.80;99.90
7648;DHT22;3866;48.020;11.720;2023-12-20T14:50:28;3.90;99.90
7648;DHT22;3866;48.020;11.720;2023-12-20T14:52:55;3.80;99.90
7648;DHT22;3866;48.020;11.720;2023-12-20T14:55:26;3.80;99.90
7648;DHT22;3866;48.020;11.720;2023-12-20T14:57:55;3.80;99.90
7648;DHT22;3866;48.020;11.720;2023-12-20T15:00:22;3.80;99.90
7648;DHT22;3866;48.020;11.720;2023-12-20T15:02:49;3.80;99.90
7648;DHT22;3866;48.020;11.720;2023-12-20T15:05:16;3.80;99.90
7648;DHT22;3866;48.020;11.720;2023-12-20T15:07:43;3.70;99.90
7648;DHT22;3866;48.020;11.720;2023-12-20T15:10:10;3.80;99.90
7648;DHT22;3866;48.020;11.720;2023-12-20T15:12:38;3.70;99.90
7648;DHT22;3866;48.020;11.720;2023-12-20T15:15:06;3.70;99.90
7648;DHT22;3866;48.020;11.720;2023-12-20T15:17:35;3.70;99.90
7648;DHT22;3866;48.020;11.720;2023-12-20T15:20:02;3.80;99.90
7648;DHT22;3866;48.020;11.720;2023-12-20T15:22:30;3.80;99.90
7648;DHT22;3866;48.020;11.720;2023-12-20T15:24:59;3.70;99.90
7648;DHT22;3866;48.020;11.720;2023-12-20T15:27:26;3.80;99.90
7648;DHT22;3866;48.020;11.720;2023-12-20T15:29:55;3.80;99.90
7648;DHT22;3866;48.020;11.720;2023-12-20T15:32:22;3.80;99.90
7648;DHT22;3866;48.020;11.720;2023-12-20T15:34:49;3.70;99.90
7648;DHT22;3866;48.020;11.720;2023-12-20T15:37:17;3.90;99.90
7648;DHT22;3866;48.020;11.720;2023-12-20T15:39:44;3.80;99.90
7648;DHT22;3866;48.020;11.720;2023-12-20T15:42:11;3.80;99.90
7648;DHT22;3866;48.020;11.720;2023-12-20T15:44:38;3.70;99.90
7648;DHT22;3866;48.020;11.720;2023-12-20T15:47:06;3.70;99.90
7648;DHT22;3866;48.020;11.720;2023-12-20T15:49:33;3.70;99.90
7648;DHT22;3866;48.020;11.720;2023-12-20T15:52:00;3.70;99.90
7648;DHT22;3866;48.020;11.720;2023-12-20T15:54:30;3.80;99.90
7648;DHT22;3866;48.020;11.720;2023-12-20T15:56:56;3.80;99.90
7648;DHT22;3866;48.020;11.720;2023-12-20T15:59:24;3.70;99.90
7648;DHT22;3866;48.020;11.720;2023-12-20T16:01:50;3.70;99.90
7648;DHT22;3866;48.020;11.720;2023-12-20T16:04:20;3.70;99.90